LEFM weather

Fuentemilanos Airport
Segovia, Castilla y León, Spain

Public forecast

Using degrees Celsius for public forecast. Weather courtesy of forecast.io.

Closest aviation weather report (METAR) to Fuentemilanos Airport

Closest report is Adolfo Suárez Madrid–Barajas Airport, 39.6 nm (73.4 km) SE. Retrieved 2019/10/23 15:30 UTC (0 seconds ago):

LEMD 231530Z 20005KT 150V240 9999 FEW015 SCT025 BKN045 11/08 Q1008 NOSIG

Closest aviation forecast (TAF) to Fuentemilanos Airport

Closest forecast is Adolfo Suárez Madrid–Barajas Airport, 39.6 nm (73.4 km) SE. Retrieved 2019/10/23 12:28 UTC (3 hours ago):

TAF LEMD 231100Z 2312/2418 VRB05KT 9999 SCT015 BKN035 TX18/2415Z TN07/2406Z PROB40 TEMPO 2312/2403 3000 RADZ BR BKN010 PROB40 TEMPO 2312/2318 23006G16KT PROB30 TEMPO 2404/2408 0800 FG OVC008